createdAt,value
2023-05-09T00:02:04.452Z,38.70
2023-05-09T00:04:32.749Z,37.42
2023-05-09T00:07:00.116Z,36.67
2023-05-09T00:09:27.495Z,37.60
2023-05-09T00:11:54.767Z,36.60
2023-05-09T00:14:22.009Z,40.85
2023-05-09T00:16:49.460Z,38.47
2023-05-09T00:19:16.896Z,40.55
2023-05-09T00:21:44.504Z,40.55
2023-05-09T00:24:11.759Z,43.45
2023-05-09T00:26:39.019Z,41.17
2023-05-09T00:29:06.313Z,40.20
2023-05-09T00:31:33.760Z,39.65
2023-05-09T00:34:01.497Z,42.38
2023-05-09T00:36:28.727Z,41.20
2023-05-09T00:38:56.035Z,39.40
2023-05-09T00:41:23.287Z,41.53
2023-05-09T00:43:50.572Z,45.00
2023-05-09T00:46:18.002Z,42.63
2023-05-09T00:48:46.544Z,42.88
2023-05-09T00:51:13.801Z,45.22
2023-05-09T00:53:41.374Z,44.55
2023-05-09T00:56:08.817Z,46.97
2023-05-09T00:58:36.294Z,45.20
2023-05-09T01:01:03.862Z,45.10
2023-05-09T01:03:31.746Z,43.28
2023-05-09T01:06:13.762Z,41.45
2023-05-09T01:08:59.949Z,45.85
2023-05-09T01:11:33.386Z,44.22
2023-05-09T01:14:09.147Z,42.90
2023-05-09T01:16:39.987Z,45.40
2023-05-09T01:19:41.015Z,42.88
2023-05-09T01:22:09.521Z,41.47
2023-05-09T01:24:52.078Z,39.67
2023-05-09T01:27:38.429Z,40.58
2023-05-09T01:30:07.092Z,38.88
2023-05-09T01:32:36.568Z,39.33
2023-05-09T01:35:04.751Z,35.47
2023-05-09T01:37:33.745Z,37.63
2023-05-09T01:42:31.716Z,33.78
2023-05-09T01:44:59.682Z,35.47
2023-05-09T01:47:27.049Z,33.38
2023-05-09T01:49:56.233Z,34.35
2023-05-09T01:54:51.533Z,37.20
2023-05-09T01:57:19.914Z,32.20
2023-05-09T01:59:48.082Z,35.40
2023-05-09T02:02:15.663Z,31.10
2023-05-09T02:04:44.851Z,37.72
2023-05-09T02:07:13.431Z,34.22
2023-05-09T02:09:40.989Z,32.38
2023-05-09T02:12:08.450Z,33.00
2023-05-09T02:14:35.736Z,32.05
2023-05-09T02:17:06.468Z,33.35
2023-05-09T02:19:35.298Z,32.08
2023-05-09T02:22:04.769Z,31.83
2023-05-09T02:24:33.119Z,30.92
2023-05-09T02:27:01.755Z,34.27
2023-05-09T02:29:38.486Z,32.30
2023-05-09T02:32:08.012Z,29.88
2023-05-09T02:34:36.622Z,30.70
2023-05-09T02:37:04.538Z,29.90
2023-05-09T02:39:32.034Z,28.42
2023-05-09T02:42:11.458Z,30.38
2023-05-09T02:44:39.132Z,31.95
2023-05-09T02:47:07.535Z,30.67
2023-05-09T02:49:35.047Z,33.03
2023-05-09T02:52:04.575Z,29.65
2023-05-09T02:54:31.802Z,29.05
2023-05-09T02:56:59.311Z,30.90
2023-05-09T02:59:27.564Z,30.00
2023-05-09T03:04:23.064Z,26.75
2023-05-09T03:06:51.253Z,30.80
2023-05-09T03:09:18.532Z,25.92
2023-05-09T03:11:45.736Z,28.73
2023-05-09T03:14:14.861Z,29.75
2023-05-09T03:19:18.365Z,28.40
2023-05-09T03:21:45.720Z,28.88
2023-05-09T03:24:13.724Z,29.65
2023-05-09T03:26:41.006Z,31.33
2023-05-09T03:29:08.264Z,30.15
2023-05-09T03:31:36.069Z,32.30
2023-05-09T03:34:03.392Z,29.52
2023-05-09T03:36:31.882Z,30.60
2023-05-09T03:38:59.803Z,30.30
2023-05-09T03:41:27.166Z,27.95
2023-05-09T03:43:54.649Z,26.90
2023-05-09T03:46:22.001Z,29.45
2023-05-09T03:48:50.270Z,28.90
2023-05-09T03:51:18.092Z,26.63
2023-05-09T03:53:48.558Z,30.23
2023-05-09T03:56:16.530Z,28.20
2023-05-09T03:58:49.844Z,24.95
2023-05-09T04:01:17.205Z,27.45
2023-05-09T04:03:45.613Z,25.10
2023-05-09T04:06:15.070Z,25.73
2023-05-09T04:08:44.306Z,26.55
2023-05-09T04:11:11.507Z,25.27
2023-05-09T04:13:41.997Z,26.70
2023-05-09T04:16:38.422Z,24.38
2023-05-09T04:19:07.229Z,24.90
2023-05-09T04:21:35.725Z,24.63
2023-05-09T04:24:04.198Z,26.55
2023-05-09T04:26:38.939Z,25.55
2023-05-09T04:29:09.061Z,25.17
2023-05-09T04:31:36.920Z,27.88
2023-05-09T04:34:05.285Z,25.15
2023-05-09T04:36:35.129Z,24.98
2023-05-09T04:39:02.946Z,25.80
2023-05-09T04:41:31.079Z,25.58
2023-05-09T04:43:58.355Z,24.95
2023-05-09T04:46:27.121Z,27.45
2023-05-09T04:48:55.511Z,26.42
2023-05-09T04:51:22.810Z,25.70
2023-05-09T04:53:51.706Z,27.50
2023-05-09T04:56:21.880Z,26.02
2023-05-09T04:58:50.040Z,25.37
2023-05-09T05:01:17.644Z,25.73
2023-05-09T05:03:46.025Z,25.75
2023-05-09T05:06:13.284Z,25.52
2023-05-09T05:11:10.411Z,24.30
2023-05-09T05:13:37.770Z,24.85
2023-05-09T05:16:06.648Z,24.35
2023-05-09T05:18:34.028Z,24.88
2023-05-09T05:21:01.750Z,24.80
2023-05-09T05:23:29.715Z,24.83
2023-05-09T05:25:56.945Z,24.15
2023-05-09T05:28:25.102Z,24.83
2023-05-09T05:30:52.569Z,26.13
2023-05-09T05:33:19.849Z,24.80
2023-05-09T05:35:47.733Z,24.80
2023-05-09T05:38:15.002Z,24.58
2023-05-09T05:40:44.031Z,23.95
2023-05-09T05:43:11.441Z,24.58
2023-05-09T05:45:39.679Z,25.23
2023-05-09T05:48:10.161Z,24.48
2023-05-09T05:50:37.611Z,24.13
2023-05-09T05:53:06.530Z,25.65
2023-05-09T05:55:34.210Z,23.67
2023-05-09T05:58:01.519Z,25.27
2023-05-09T06:00:29.502Z,23.27
2023-05-09T06:03:03.134Z,25.20
2023-05-09T06:05:42.073Z,25.42
2023-05-09T06:08:09.505Z,24.48
2023-05-09T06:10:36.749Z,27.05
2023-05-09T06:13:04.135Z,24.30
2023-05-09T06:15:31.698Z,25.45
2023-05-09T06:18:00.200Z,24.50
2023-05-09T06:20:28.239Z,24.83
2023-05-09T06:22:55.550Z,26.92
2023-05-09T06:25:22.793Z,24.52
2023-05-09T06:27:50.014Z,25.08
2023-05-09T06:30:25.809Z,24.40
2023-05-09T06:32:54.795Z,24.85
2023-05-09T06:35:22.315Z,24.52
2023-05-09T06:37:49.652Z,25.13
2023-05-09T06:40:17.430Z,26.60
2023-05-09T06:42:45.235Z,23.00
2023-05-09T06:45:12.969Z,24.13
2023-05-09T06:47:40.490Z,23.65
2023-05-09T06:50:08.297Z,23.08
2023-05-09T06:52:35.950Z,23.02
2023-05-09T06:55:03.701Z,22.83
2023-05-09T06:57:31.042Z,24.60
2023-05-09T06:59:58.369Z,25.48
2023-05-09T07:02:25.932Z,25.48
2023-05-09T07:04:53.261Z,24.33
2023-05-09T07:07:20.477Z,23.60
2023-05-09T07:09:50.769Z,24.33
2023-05-09T07:12:20.416Z,23.52
2023-05-09T07:14:47.647Z,22.33
2023-05-09T07:17:22.684Z,26.73
2023-05-09T07:19:51.288Z,24.13
2023-05-09T07:22:18.497Z,23.63
2023-05-09T07:24:46.440Z,23.90
2023-05-09T07:27:13.963Z,23.05
2023-05-09T07:29:41.204Z,23.88
2023-05-09T07:32:08.643Z,24.02
2023-05-09T07:34:36.659Z,21.67
2023-05-09T07:37:03.974Z,20.20
2023-05-09T07:39:31.262Z,20.98
2023-05-09T07:41:58.551Z,21.60
2023-05-09T07:44:25.786Z,24.38
2023-05-09T07:46:55.434Z,23.95
2023-05-09T07:49:22.888Z,21.48
2023-05-09T07:51:50.155Z,22.05
2023-05-09T07:54:17.544Z,22.63
2023-05-09T07:56:44.716Z,24.88
2023-05-09T07:59:12.363Z,22.17
2023-05-09T08:01:39.710Z,21.25
2023-05-09T08:04:09.047Z,23.48
2023-05-09T08:06:36.788Z,23.55
2023-05-09T08:09:04.817Z,23.45
2023-05-09T08:11:35.983Z,23.02
2023-05-09T08:14:03.351Z,23.15
2023-05-09T08:16:30.837Z,23.17
2023-05-09T08:18:58.227Z,21.08
2023-05-09T08:21:26.483Z,21.48
2023-05-09T08:23:53.860Z,21.13
2023-05-09T08:26:22.077Z,21.48
2023-05-09T08:28:49.673Z,23.87
2023-05-09T08:31:17.002Z,23.80
2023-05-09T08:33:44.221Z,22.48
2023-05-09T08:36:11.530Z,22.25
2023-05-09T08:38:40.508Z,23.05
2023-05-09T08:41:07.790Z,19.17
2023-05-09T08:43:35.308Z,22.63
2023-05-09T08:46:07.949Z,21.88
2023-05-09T08:48:38.748Z,21.17
2023-05-09T08:51:06.759Z,19.98
2023-05-09T08:53:34.959Z,20.50
2023-05-09T08:56:04.224Z,20.33
2023-05-09T08:58:32.115Z,17.15
2023-05-09T09:00:59.863Z,18.27
2023-05-09T09:03:27.167Z,18.08
2023-05-09T09:05:55.012Z,19.52
2023-05-09T09:08:22.629Z,18.70
2023-05-09T09:10:49.931Z,17.77
2023-05-09T09:13:18.114Z,19.25
2023-05-09T09:15:47.009Z,18.77
2023-05-09T09:18:19.725Z,17.45
2023-05-09T09:20:49.155Z,17.13
2023-05-09T09:23:21.097Z,15.20
2023-05-09T09:25:48.510Z,16.92
2023-05-09T09:28:16.248Z,16.77
2023-05-09T09:30:48.421Z,15.43
2023-05-09T09:33:22.780Z,15.38
2023-05-09T09:35:50.979Z,15.45
2023-05-09T09:38:22.105Z,13.70
2023-05-09T09:40:59.046Z,14.52
2023-05-09T09:43:30.154Z,15.57
2023-05-09T09:45:57.956Z,15.48
2023-05-09T09:48:26.765Z,15.35
2023-05-09T09:50:57.228Z,13.77
2023-05-09T09:53:30.202Z,15.43
2023-05-09T09:55:57.776Z,16.02
2023-05-09T09:58:25.558Z,16.20
2023-05-09T10:01:13.928Z,17.27
2023-05-09T10:03:45.226Z,18.67
2023-05-09T10:06:13.353Z,17.08
2023-05-09T10:08:41.502Z,16.88
2023-05-09T10:11:09.900Z,17.25
2023-05-09T10:13:38.485Z,15.98
2023-05-09T10:16:06.754Z,16.45
2023-05-09T10:18:34.631Z,13.47
2023-05-09T10:21:04.066Z,12.88
2023-05-09T10:23:32.698Z,14.18
2023-05-09T10:26:19.155Z,15.13
2023-05-09T10:28:47.206Z,15.32
2023-05-09T10:31:17.021Z,14.30
2023-05-09T10:33:48.019Z,15.55
2023-05-09T10:36:17.550Z,14.98
2023-05-09T10:38:45.196Z,16.27
2023-05-09T10:41:12.664Z,14.20
2023-05-09T10:43:40.154Z,15.02
2023-05-09T10:46:07.674Z,14.98
2023-05-09T10:48:35.647Z,17.15
2023-05-09T10:51:03.585Z,17.33
2023-05-09T10:53:51.449Z,15.88
2023-05-09T10:56:35.832Z,17.25
2023-05-09T10:59:03.376Z,16.42
2023-05-09T11:01:31.626Z,14.77
2023-05-09T11:04:00.205Z,16.63
2023-05-09T11:06:43.870Z,16.67
2023-05-09T11:09:28.228Z,15.98
2023-05-09T11:12:09.877Z,16.15
2023-05-09T11:14:41.433Z,16.17
2023-05-09T11:17:10.136Z,15.13
2023-05-09T11:19:58.121Z,14.90
2023-05-09T11:22:27.486Z,15.68
2023-05-09T11:25:02.709Z,15.55
2023-05-09T11:27:30.359Z,16.63
2023-05-09T11:29:58.474Z,15.00
2023-05-09T11:32:31.763Z,15.25
2023-05-09T11:35:14.945Z,16.02
2023-05-09T11:37:47.113Z,15.38
2023-05-09T11:40:15.648Z,17.70
2023-05-09T11:42:44.809Z,14.50
2023-05-09T11:47:39.640Z,17.80
2023-05-09T11:50:07.989Z,17.27
2023-05-09T11:52:35.243Z,14.37
2023-05-09T11:55:02.621Z,16.23
2023-05-09T11:57:30.160Z,16.52
2023-05-09T11:59:57.471Z,15.52
2023-05-09T12:02:24.822Z,15.52
2023-05-09T12:04:52.409Z,15.23
2023-05-09T12:07:20.590Z,16.08
2023-05-09T12:09:49.801Z,15.60
2023-05-09T12:14:49.544Z,16.15
2023-05-09T12:17:16.890Z,15.10
2023-05-09T12:19:45.276Z,18.05
2023-05-09T12:22:12.450Z,16.27
2023-05-09T12:24:39.651Z,15.20
2023-05-09T12:27:07.961Z,14.57
2023-05-09T12:29:35.780Z,16.02
2023-05-09T12:32:03.559Z,15.88
2023-05-09T12:34:31.239Z,16.17
2023-05-09T12:37:00.152Z,13.95
2023-05-09T12:39:27.473Z,13.18
2023-05-09T12:42:01.579Z,12.32
2023-05-09T12:44:29.990Z,13.10
2023-05-09T12:47:01.856Z,13.70
2023-05-09T12:49:29.724Z,14.70
2023-05-09T12:51:57.942Z,14.43
2023-05-09T12:54:26.271Z,14.20
2023-05-09T12:56:56.704Z,13.35
2023-05-09T12:59:24.677Z,15.05
2023-05-09T13:01:53.693Z,12.13
2023-05-09T13:06:53.759Z,10.05
2023-05-09T13:09:21.057Z,9.88
2023-05-09T13:11:48.516Z,9.13
2023-05-09T13:14:15.798Z,8.63
2023-05-09T13:16:44.006Z,8.05
2023-05-09T13:19:11.446Z,6.80
2023-05-09T13:21:38.732Z,6.28
2023-05-09T13:24:06.265Z,6.85
2023-05-09T13:26:34.019Z,6.75
2023-05-09T13:29:01.292Z,6.72
2023-05-09T13:31:28.679Z,7.90
2023-05-09T13:33:56.019Z,6.35
2023-05-09T13:36:23.344Z,11.65
2023-05-09T13:38:50.909Z,11.55
2023-05-09T13:41:22.199Z,6.60
2023-05-09T13:43:49.472Z,7.57
2023-05-09T13:46:16.998Z,11.30
2023-05-09T13:48:44.396Z,14.38
2023-05-09T13:51:11.669Z,7.07
2023-05-09T13:53:39.340Z,9.20
2023-05-09T13:56:09.257Z,9.75
2023-05-09T13:58:36.757Z,15.82
2023-05-09T14:01:04.235Z,5.82
2023-05-09T14:03:31.943Z,9.40
2023-05-09T14:05:59.770Z,11.20
2023-05-09T14:08:27.225Z,8.10
2023-05-09T14:10:54.690Z,7.13
2023-05-09T14:13:22.179Z,7.22
2023-05-09T14:15:49.657Z,6.28
2023-05-09T14:18:19.994Z,7.53
2023-05-09T14:20:48.126Z,8.02
2023-05-09T14:23:15.433Z,7.35
2023-05-09T14:25:42.803Z,8.23
2023-05-09T14:28:10.142Z,9.65
2023-05-09T14:30:37.553Z,8.70
2023-05-09T14:33:04.853Z,8.73
2023-05-09T14:35:34.109Z,9.13
2023-05-09T14:38:02.043Z,7.85
2023-05-09T14:40:32.202Z,5.80
2023-05-09T14:43:02.501Z,4.90
2023-05-09T14:45:30.293Z,5.40
2023-05-09T14:47:58.008Z,5.07
2023-05-09T14:50:25.796Z,5.70
2023-05-09T14:52:53.117Z,5.65
2023-05-09T14:55:22.985Z,5.95
2023-05-09T14:57:50.472Z,5.85
2023-05-09T15:00:21.865Z,4.97
2023-05-09T15:02:50.295Z,6.00
2023-05-09T15:05:17.906Z,5.50
2023-05-09T15:07:45.242Z,5.88
2023-05-09T15:10:12.690Z,7.05
2023-05-09T15:12:40.040Z,6.70
2023-05-09T15:15:13.353Z,7.03
2023-05-09T15:17:40.621Z,7.30
2023-05-09T15:20:08.138Z,6.95
2023-05-09T15:22:35.414Z,8.27
2023-05-09T15:25:05.413Z,7.78
2023-05-09T15:27:33.387Z,7.93
2023-05-09T15:30:00.878Z,8.85
2023-05-09T15:32:28.394Z,7.70
2023-05-09T15:34:55.727Z,8.30
2023-05-09T15:37:23.165Z,8.32
2023-05-09T15:39:50.595Z,9.75
2023-05-09T15:42:19.217Z,10.43
2023-05-09T15:44:49.542Z,9.55
2023-05-09T15:47:16.834Z,8.90
2023-05-09T15:49:44.212Z,7.82
2023-05-09T15:52:11.607Z,8.00
2023-05-09T15:54:39.380Z,8.43
2023-05-09T15:57:07.211Z,7.95
2023-05-09T15:59:34.422Z,7.35
2023-05-09T16:02:01.820Z,7.55
2023-05-09T16:04:29.142Z,7.50
2023-05-09T16:06:57.006Z,13.27
2023-05-09T16:09:24.434Z,8.43
2023-05-09T16:11:51.848Z,6.70
2023-05-09T16:14:19.410Z,7.30
2023-05-09T16:16:49.974Z,5.97
2023-05-09T16:19:17.317Z,7.05
2023-05-09T16:21:46.635Z,6.88
2023-05-09T16:24:14.056Z,6.35
2023-05-09T16:26:41.369Z,7.93
2023-05-09T16:29:08.652Z,6.28
2023-05-09T16:31:36.010Z,6.97
2023-05-09T16:34:04.011Z,7.25
2023-05-09T16:36:32.779Z,7.00
2023-05-09T16:39:00.036Z,8.20
2023-05-09T16:41:27.346Z,8.48
2023-05-09T16:43:54.653Z,7.68
2023-05-09T16:46:22.113Z,7.90
2023-05-09T16:48:51.603Z,9.07
2023-05-09T16:51:19.015Z,9.05
2023-05-09T16:53:46.297Z,10.13
2023-05-09T16:56:13.581Z,12.07
2023-05-09T16:58:41.796Z,9.75
2023-05-09T17:01:09.069Z,10.40
2023-05-09T17:03:36.326Z,9.82
2023-05-09T17:06:03.572Z,10.60
2023-05-09T17:08:30.969Z,10.27
2023-05-09T17:10:58.200Z,11.32
2023-05-09T17:13:25.533Z,10.70
2023-05-09T17:15:52.891Z,14.68
2023-05-09T17:18:33.384Z,9.70
2023-05-09T17:21:03.745Z,10.73
2023-05-09T17:23:30.912Z,10.57
2023-05-09T17:25:58.191Z,7.88
2023-05-09T17:28:25.509Z,7.25
2023-05-09T17:30:52.724Z,6.82
2023-05-09T17:33:20.657Z,5.65
2023-05-09T17:35:49.610Z,4.22
2023-05-09T17:38:17.422Z,5.43
2023-05-09T17:40:44.905Z,6.82
2023-05-09T17:43:14.164Z,8.65
2023-05-09T17:45:42.692Z,12.27
2023-05-09T17:48:10.087Z,6.43
2023-05-09T17:50:37.427Z,5.40
2023-05-09T17:53:04.984Z,4.00
2023-05-09T17:55:32.319Z,3.65
2023-05-09T17:57:59.526Z,3.97
2023-05-09T18:00:26.834Z,4.32
2023-05-09T18:02:54.059Z,4.30
2023-05-09T18:05:21.380Z,3.88
2023-05-09T18:07:49.526Z,9.00
2023-05-09T18:10:17.049Z,4.85
2023-05-09T18:12:45.668Z,6.25
2023-05-09T18:15:13.067Z,5.03
2023-05-09T18:17:40.517Z,5.85
2023-05-09T18:20:08.614Z,4.95
2023-05-09T18:22:37.326Z,12.35
2023-05-09T18:25:04.791Z,8.98
2023-05-09T18:27:32.215Z,6.78
2023-05-09T18:29:59.482Z,5.03
2023-05-09T18:32:26.987Z,5.10
2023-05-09T18:34:54.289Z,6.55
2023-05-09T18:37:22.875Z,4.88
2023-05-09T18:39:50.320Z,5.10
2023-05-09T18:42:18.216Z,4.50
2023-05-09T18:44:45.994Z,5.93
2023-05-09T18:47:13.344Z,5.10
2023-05-09T18:49:41.247Z,5.38
2023-05-09T18:52:09.125Z,6.65
2023-05-09T18:54:36.645Z,6.97
2023-05-09T18:57:03.933Z,5.90
2023-05-09T18:59:31.854Z,8.15
2023-05-09T19:01:59.126Z,5.22
2023-05-09T19:04:26.777Z,5.60
2023-05-09T19:06:54.168Z,6.22
2023-05-09T19:09:21.591Z,5.32
2023-05-09T19:11:49.204Z,6.00
2023-05-09T19:14:16.453Z,6.03
2023-05-09T19:16:43.746Z,5.80
2023-05-09T19:19:10.982Z,6.20
2023-05-09T19:21:38.267Z,6.07
2023-05-09T19:24:06.373Z,5.53
2023-05-09T19:26:33.756Z,4.65
2023-05-09T19:29:04.089Z,6.15
2023-05-09T19:31:31.558Z,6.03
2023-05-09T19:33:58.938Z,7.53
2023-05-09T19:36:26.242Z,7.22
2023-05-09T19:38:53.546Z,6.47
2023-05-09T19:41:21.645Z,5.45
2023-05-09T19:43:51.183Z,7.40
2023-05-09T19:46:19.248Z,6.18
2023-05-09T19:48:46.685Z,6.70
2023-05-09T19:51:15.445Z,6.03
2023-05-09T19:53:42.741Z,6.47
2023-05-09T19:56:10.106Z,6.25
2023-05-09T19:58:37.388Z,7.40
2023-05-09T20:01:07.898Z,6.35
2023-05-09T20:03:36.821Z,8.10
2023-05-09T20:06:04.373Z,5.90
2023-05-09T20:08:31.695Z,7.80
2023-05-09T20:11:00.069Z,8.82
2023-05-09T20:13:27.797Z,9.32
2023-05-09T20:15:55.209Z,8.98
2023-05-09T20:18:22.522Z,9.85
2023-05-09T20:20:49.828Z,9.25
2023-05-09T20:23:17.138Z,11.25
2023-05-09T20:25:44.421Z,12.07
2023-05-09T20:28:12.228Z,11.75
2023-05-09T20:30:39.481Z,11.82
2023-05-09T20:33:06.768Z,14.40
2023-05-09T20:35:34.174Z,15.25
2023-05-09T20:38:01.562Z,14.18
2023-05-09T20:40:28.886Z,15.73
2023-05-09T20:42:56.287Z,16.52
2023-05-09T20:45:23.689Z,16.45
2023-05-09T20:47:51.027Z,15.73
2023-05-09T20:50:18.508Z,15.68
2023-05-09T20:52:45.941Z,16.67
2023-05-09T20:55:13.274Z,17.23
2023-05-09T20:57:40.763Z,21.00
2023-05-09T21:00:08.281Z,19.27
2023-05-09T21:02:35.728Z,19.67
2023-05-09T21:05:03.770Z,19.67
2023-05-09T21:07:30.970Z,18.63
2023-05-09T21:09:58.822Z,18.42
2023-05-09T21:12:26.105Z,20.38
2023-05-09T21:14:53.345Z,18.83
2023-05-09T21:17:20.673Z,20.65
2023-05-09T21:19:51.496Z,21.52
2023-05-09T21:22:18.839Z,22.45
2023-05-09T21:24:46.445Z,20.40
2023-05-09T21:27:14.260Z,23.75
2023-05-09T21:29:41.477Z,24.42
2023-05-09T21:32:08.805Z,24.30
2023-05-09T21:34:36.080Z,25.35
2023-05-09T21:37:03.278Z,23.42
2023-05-09T21:39:32.464Z,25.63
2023-05-09T21:42:00.699Z,28.58
2023-05-09T21:44:27.900Z,28.08
2023-05-09T21:46:55.203Z,27.38
2023-05-09T21:49:22.493Z,29.27
2023-05-09T21:51:49.727Z,30.15
2023-05-09T21:54:17.024Z,28.58
2023-05-09T21:56:44.344Z,30.45
2023-05-09T21:59:11.699Z,29.67
2023-05-09T22:01:39.267Z,31.27
2023-05-09T22:04:07.385Z,31.38
2023-05-09T22:06:34.742Z,33.05
2023-05-09T22:09:01.952Z,33.88
2023-05-09T22:11:29.202Z,34.58
2023-05-09T22:13:56.462Z,33.70
2023-05-09T22:16:23.759Z,32.78
2023-05-09T22:18:51.369Z,33.67
2023-05-09T22:21:19.014Z,35.67
2023-05-09T22:23:46.213Z,33.13
2023-05-09T22:26:13.596Z,34.60
2023-05-09T22:28:40.825Z,35.35
2023-05-09T22:31:08.450Z,35.78
2023-05-09T22:33:35.714Z,36.05
2023-05-09T22:36:02.988Z,39.08
2023-05-09T22:38:30.735Z,34.80
2023-05-09T22:40:57.943Z,35.55
2023-05-09T22:43:28.762Z,37.63
2023-05-09T22:46:01.153Z,33.35
2023-05-09T22:48:28.560Z,36.17
2023-05-09T22:50:55.768Z,33.33
2023-05-09T22:53:23.039Z,32.58
2023-05-09T22:55:51.394Z,34.28
2023-05-09T22:58:18.626Z,38.40
2023-05-09T23:00:45.830Z,36.63
2023-05-09T23:03:13.235Z,38.88
2023-05-09T23:05:40.721Z,37.42
2023-05-09T23:08:08.015Z,36.72
2023-05-09T23:10:35.267Z,34.92
2023-05-09T23:13:02.517Z,35.45
2023-05-09T23:15:29.931Z,33.55
2023-05-09T23:17:57.449Z,38.28
2023-05-09T23:20:24.761Z,34.88
2023-05-09T23:22:52.149Z,34.38
2023-05-09T23:25:19.465Z,34.88
2023-05-09T23:27:47.061Z,34.15
2023-05-09T23:30:14.578Z,33.40
2023-05-09T23:32:42.234Z,36.70
2023-05-09T23:35:09.670Z,37.58
2023-05-09T23:37:36.987Z,35.05
2023-05-09T23:40:04.706Z,37.28
2023-05-09T23:42:32.056Z,37.25
2023-05-09T23:44:59.815Z,34.80
2023-05-09T23:47:27.229Z,36.60
2023-05-09T23:49:54.546Z,34.42
2023-05-09T23:52:21.824Z,32.90
2023-05-09T23:54:49.036Z,37.67
2023-05-09T23:57:16.241Z,33.10
2023-05-09T23:59:43.549Z,35.10
